createdAt,value
2018-06-21T04:28:54.004Z,110
2018-06-21T04:29:55.402Z,115
2018-06-21T04:30:56.784Z,115
2018-06-21T04:31:58.170Z,115
2018-06-21T04:32:59.558Z,125
2018-06-21T04:34:00.944Z,135
2018-06-21T04:35:02.328Z,130
2018-06-21T04:36:03.720Z,130
2018-06-21T04:37:05.118Z,130
2018-06-21T04:38:06.511Z,135
2018-06-21T04:39:07.899Z,145
2018-06-21T04:40:09.291Z,170
2018-06-21T04:41:10.683Z,200
2018-06-21T04:42:12.069Z,215
2018-06-21T04:43:13.461Z,235
2018-06-21T04:44:15.579Z,235
2018-06-21T04:45:16.971Z,215
2018-06-21T04:46:18.374Z,185
2018-06-21T04:47:19.773Z,165
2018-06-21T04:48:21.171Z,165
2018-06-21T04:49:22.565Z,170
2018-06-21T04:50:23.957Z,185
2018-06-21T04:51:25.351Z,175
2018-06-21T04:52:26.750Z,215
2018-06-21T04:53:28.147Z,290
2018-06-21T04:54:29.541Z,305
2018-06-21T04:55:30.932Z,240
2018-06-21T04:56:32.330Z,190
2018-06-21T04:57:33.718Z,185
2018-06-21T04:58:35.112Z,180
2018-06-21T04:59:36.504Z,180
2018-06-21T05:00:37.892Z,150
2018-06-21T05:01:39.300Z,155
2018-06-21T05:02:40.696Z,155
2018-06-21T05:03:42.083Z,105
2018-06-21T05:04:43.502Z,150
2018-06-21T05:05:44.900Z,155
2018-06-21T05:06:46.298Z,155
2018-06-21T05:07:47.693Z,150
2018-06-21T05:08:49.087Z,150
2018-06-21T05:09:50.494Z,145
2018-06-21T05:10:51.882Z,145
2018-06-21T05:11:53.299Z,150
2018-06-21T05:12:54.683Z,155
2018-06-21T05:13:56.081Z,160
2018-06-21T05:14:57.489Z,165
2018-06-21T05:15:58.878Z,180
2018-06-21T05:17:00.304Z,185
2018-06-21T05:18:01.682Z,190
2018-06-21T05:19:03.080Z,190
2018-06-21T05:20:04.468Z,195
2018-06-21T05:21:05.877Z,195
2018-06-21T05:22:07.276Z,200
2018-06-21T05:23:09.522Z,205
2018-06-21T05:24:10.914Z,200
2018-06-21T05:25:12.358Z,235
2018-06-21T05:26:13.710Z,315
2018-06-21T05:27:15.105Z,330
2018-06-21T05:28:16.491Z,315
2018-06-21T05:29:17.890Z,255
2018-06-21T05:30:19.282Z,260
2018-06-21T05:31:20.680Z,265
2018-06-21T05:32:22.077Z,260
2018-06-21T05:33:23.478Z,260
2018-06-21T05:34:24.878Z,260
2018-06-21T05:35:26.277Z,255
2018-06-21T05:36:27.671Z,250
2018-06-21T05:37:29.100Z,250
2018-06-21T05:38:30.477Z,245
2018-06-21T05:39:31.865Z,215
2018-06-21T05:40:33.837Z,235
2018-06-21T05:41:35.220Z,230
2018-06-21T05:42:36.622Z,225
2018-06-21T05:43:38.544Z,210
2018-06-21T05:44:39.941Z,200
2018-06-21T05:45:41.334Z,240
2018-06-21T05:46:42.740Z,275
2018-06-21T05:47:44.136Z,410
2018-06-21T05:48:45.527Z,550
2018-06-21T05:49:46.922Z,555
2018-06-21T05:50:48.330Z,535
2018-06-21T05:51:49.720Z,575
2018-06-21T05:52:51.119Z,605
2018-06-21T05:53:52.512Z,640
2018-06-21T05:54:53.916Z,660
2018-06-21T05:55:55.312Z,710
2018-06-21T05:56:56.708Z,750
2018-06-21T05:57:58.111Z,795
2018-06-21T05:58:59.506Z,820
2018-06-21T06:00:00.901Z,845
2018-06-21T06:01:02.309Z,835
2018-06-21T06:02:03.772Z,855
2018-06-21T06:03:05.120Z,900
2018-06-21T06:04:06.519Z,860
2018-06-21T06:05:07.925Z,855
2018-06-21T06:06:09.329Z,820
2018-06-21T06:07:10.736Z,800
2018-06-21T06:08:12.166Z,675
2018-06-21T06:09:13.523Z,510
2018-06-21T06:10:14.928Z,445
2018-06-21T06:11:16.338Z,455
2018-06-21T06:12:17.746Z,470
2018-06-21T06:13:19.145Z,400
2018-06-21T06:14:21.462Z,380
2018-06-21T06:15:22.855Z,390
2018-06-21T06:16:24.263Z,345
2018-06-21T06:17:25.666Z,320
2018-06-21T06:18:27.060Z,355
2018-06-21T06:19:29.254Z,370
2018-06-21T06:20:30.642Z,365
2018-06-21T06:21:32.065Z,345
2018-06-21T06:22:33.463Z,375
2018-06-21T06:23:34.860Z,415
2018-06-21T06:24:36.273Z,365
2018-06-21T06:25:37.673Z,300
2018-06-21T06:26:39.073Z,265
2018-06-21T06:27:41.115Z,270
2018-06-21T06:28:43.506Z,235
2018-06-21T06:29:44.879Z,205
2018-06-21T06:30:46.294Z,195
2018-06-21T06:31:47.691Z,290
2018-06-21T06:32:49.099Z,280
2018-06-21T06:33:50.513Z,260
2018-06-21T06:34:51.912Z,300
2018-06-21T06:35:53.308Z,280
2018-06-21T06:36:54.717Z,260
2018-06-21T06:37:56.119Z,285
2018-06-21T06:38:57.526Z,240
2018-06-21T06:39:59.516Z,225
2018-06-21T06:41:00.906Z,195
2018-06-21T06:42:02.318Z,165
2018-06-21T06:43:03.712Z,175
2018-06-21T06:44:05.104Z,180
2018-06-21T06:45:06.514Z,170
2018-06-21T06:46:08.603Z,165
2018-06-21T06:47:09.983Z,250
2018-06-21T06:48:11.387Z,215
2018-06-21T06:49:12.794Z,245
2018-06-21T06:50:14.191Z,255
2018-06-21T06:51:15.582Z,280
2018-06-21T06:52:16.989Z,280
2018-06-21T06:53:18.386Z,250
2018-06-21T06:54:19.823Z,195
2018-06-21T06:55:21.193Z,205
2018-06-21T06:56:22.585Z,255
2018-06-21T06:57:23.993Z,225
2018-06-21T06:58:25.398Z,230
2018-06-21T06:59:26.789Z,210
2018-06-21T07:00:28.189Z,235
2018-06-21T07:01:29.582Z,230
2018-06-21T07:02:30.986Z,175
2018-06-21T07:03:32.384Z,235
2018-06-21T07:04:33.780Z,240
2018-06-21T07:05:35.188Z,225
2018-06-21T07:06:36.582Z,195
2018-06-21T07:07:37.991Z,240
2018-06-21T07:08:39.380Z,230
2018-06-21T07:09:40.773Z,245
2018-06-21T07:10:42.171Z,245
2018-06-21T07:11:43.586Z,175
2018-06-21T07:12:44.994Z,160
2018-06-21T07:13:46.392Z,160
2018-06-21T07:14:47.789Z,170
2018-06-21T07:15:49.184Z,230
2018-06-21T07:16:50.595Z,185
2018-06-21T07:17:51.981Z,200
2018-06-21T07:18:53.390Z,230
2018-06-21T07:19:54.787Z,235
2018-06-21T07:20:56.181Z,235
2018-06-21T07:21:57.580Z,230
2018-06-21T07:22:58.980Z,245
2018-06-21T07:24:00.377Z,245
2018-06-21T07:25:01.779Z,235
2018-06-21T07:26:03.201Z,140
2018-06-21T07:27:04.633Z,205
2018-06-21T07:28:05.993Z,175
2018-06-21T07:29:07.383Z,215
2018-06-21T07:30:08.803Z,245
2018-06-21T07:31:10.184Z,200
2018-06-21T07:32:11.595Z,230
2018-06-21T07:33:12.990Z,245
2018-06-21T07:34:14.380Z,225
2018-06-21T07:35:15.774Z,180
2018-06-21T07:36:17.180Z,225
2018-06-21T07:37:18.585Z,250
2018-06-21T07:38:19.982Z,150
2018-06-21T07:39:21.388Z,150
2018-06-21T07:40:22.790Z,205
2018-06-21T07:41:24.180Z,150
2018-06-21T07:42:25.583Z,145
2018-06-21T07:43:26.984Z,205
2018-06-21T07:44:28.397Z,255
2018-06-21T07:45:29.792Z,180
2018-06-21T07:46:31.191Z,255
2018-06-21T07:47:32.596Z,260
2018-06-21T07:48:34.003Z,220
2018-06-21T07:49:35.408Z,255
2018-06-21T07:50:36.807Z,220
2018-06-21T07:51:38.209Z,145
2018-06-21T07:52:39.613Z,150
2018-06-21T07:53:41.012Z,105
2018-06-21T07:54:42.405Z,90
2018-06-21T07:55:43.800Z,125
2018-06-21T07:56:46.182Z,145
2018-06-21T07:57:47.581Z,125
2018-06-21T07:58:48.971Z,125
2018-06-21T07:59:50.366Z,180
2018-06-21T08:00:51.756Z,185
2018-06-21T08:01:53.162Z,145
2018-06-21T08:02:54.548Z,100
2018-06-21T08:03:55.944Z,105
2018-06-21T08:04:57.350Z,65
2018-06-21T08:05:58.742Z,85
2018-06-21T08:07:00.140Z,110
2018-06-21T08:08:01.521Z,60
2018-06-21T08:09:02.922Z,40
2018-06-21T08:10:04.326Z,60
2018-06-21T08:11:05.728Z,70
2018-06-21T08:12:07.127Z,65
2018-06-21T08:13:09.187Z,60
2018-06-21T08:14:10.591Z,50
2018-06-21T08:15:11.989Z,40
2018-06-21T08:16:13.391Z,35
2018-06-21T08:17:15.537Z,40
2018-06-21T08:18:16.937Z,30
2018-06-21T08:19:18.340Z,45
2018-06-21T08:20:19.806Z,65
2018-06-21T08:21:21.141Z,65
2018-06-21T08:22:22.549Z,85
2018-06-21T08:23:23.943Z,85
2018-06-21T08:24:25.345Z,100
2018-06-21T08:25:26.737Z,105
2018-06-21T08:26:28.127Z,75
2018-06-21T08:27:29.530Z,60
2018-06-21T08:28:30.917Z,45
2018-06-21T08:29:32.322Z,40
2018-06-21T08:30:33.724Z,45
2018-06-21T08:31:35.132Z,50
2018-06-21T08:32:36.544Z,60
2018-06-21T08:33:37.940Z,80
2018-06-21T08:34:39.393Z,110
2018-06-21T08:35:40.789Z,90
2018-06-21T08:36:42.186Z,90
2018-06-21T08:37:43.593Z,95
2018-06-21T08:38:45.022Z,95
2018-06-21T08:39:46.400Z,105
2018-06-21T08:40:47.808Z,110
2018-06-21T08:41:49.202Z,125
2018-06-21T08:42:50.628Z,125
2018-06-21T08:43:52.028Z,115
2018-06-21T08:44:53.425Z,110
2018-06-21T08:45:54.825Z,105
2018-06-21T08:46:56.216Z,85
2018-06-21T08:47:57.624Z,75
2018-06-21T08:48:59.019Z,75
2018-06-21T08:50:00.417Z,80
2018-06-21T08:51:01.810Z,75
2018-06-21T08:52:03.264Z,80
2018-06-21T08:53:04.623Z,90
2018-06-21T08:54:06.001Z,105
2018-06-21T08:55:07.402Z,105
2018-06-21T08:56:08.796Z,100
2018-06-21T08:57:10.192Z,85
2018-06-21T08:58:11.591Z,80
2018-06-21T08:59:12.985Z,70
2018-06-21T09:00:14.385Z,65
2018-06-21T09:01:15.778Z,60
2018-06-21T09:02:17.176Z,40
2018-06-21T09:03:18.584Z,40
2018-06-21T09:04:19.972Z,45
2018-06-21T09:05:21.363Z,60
2018-06-21T09:06:22.777Z,50
2018-06-21T09:07:24.166Z,80
2018-06-21T09:08:25.558Z,60
2018-06-21T09:09:26.958Z,45
2018-06-21T09:10:28.350Z,60
2018-06-21T09:11:29.740Z,75
2018-06-21T09:12:31.137Z,85
2018-06-21T09:13:32.550Z,85
2018-06-21T09:14:33.934Z,60
2018-06-21T09:15:35.329Z,65
2018-06-21T09:16:36.719Z,45
2018-06-21T09:17:38.109Z,40
2018-06-21T09:18:39.514Z,35
2018-06-21T09:19:40.906Z,20
2018-06-21T09:20:42.297Z,15
2018-06-21T09:21:43.692Z,10
2018-06-21T09:22:45.096Z,5
2018-06-21T09:23:46.487Z,5
2018-06-21T09:24:47.884Z,10
2018-06-21T09:25:49.277Z,15
2018-06-21T09:26:50.682Z,15
2018-06-21T09:27:52.068Z,20
2018-06-21T09:28:53.456Z,25
2018-06-21T09:29:54.858Z,40
2018-06-21T09:30:56.250Z,55
2018-06-21T09:31:57.649Z,55
2018-06-21T09:32:59.044Z,55
2018-06-21T09:34:00.426Z,55
2018-06-21T09:35:01.833Z,60
2018-06-21T09:36:03.224Z,70
2018-06-21T09:37:04.620Z,80
2018-06-21T09:38:06.008Z,85
2018-06-21T09:39:07.412Z,85
2018-06-21T09:40:08.807Z,65
2018-06-21T09:41:10.210Z,45
2018-06-21T09:42:11.595Z,35
2018-06-21T09:43:12.989Z,30
2018-06-21T09:44:14.385Z,25
2018-06-21T09:45:15.775Z,20
2018-06-21T09:46:17.167Z,15
2018-06-21T09:47:18.566Z,15
2018-06-21T09:48:19.945Z,15
2018-06-21T09:49:21.347Z,15
2018-06-21T09:50:22.736Z,15
2018-06-21T09:51:24.128Z,15
2018-06-21T09:52:26.166Z,10
2018-06-21T09:53:27.548Z,10
2018-06-21T09:54:28.938Z,5
2018-06-21T09:55:30.330Z,5
2018-06-21T09:56:31.711Z,5
2018-06-21T09:57:33.106Z,5
2018-06-21T09:58:34.488Z,5
2018-06-21T09:59:35.887Z,5
2018-06-21T10:00:37.278Z,5
2018-06-21T10:01:38.681Z,10
2018-06-21T10:02:40.068Z,15
2018-06-21T10:03:41.474Z,10
2018-06-21T10:04:42.863Z,15
2018-06-21T10:05:44.261Z,10
2018-06-21T10:06:45.674Z,15
2018-06-21T10:07:47.060Z,15
2018-06-21T10:08:48.713Z,15
2018-06-21T10:09:50.103Z,20
2018-06-21T10:10:51.485Z,20
2018-06-21T10:11:52.877Z,20
2018-06-21T10:12:54.296Z,15
2018-06-21T10:13:55.684Z,10
2018-06-21T10:14:57.076Z,10
2018-06-21T10:15:58.464Z,10
2018-06-21T10:16:59.866Z,15
2018-06-21T10:18:01.270Z,15
2018-06-21T10:19:02.654Z,15
2018-06-21T10:20:04.048Z,10
2018-06-21T10:21:05.450Z,10
2018-06-21T10:22:06.840Z,10
2018-06-21T10:23:08.262Z,15
2018-06-21T10:24:09.634Z,15
2018-06-21T10:25:11.014Z,15
2018-06-21T10:26:12.409Z,15
2018-06-21T10:27:13.790Z,10
2018-06-21T10:28:15.192Z,10
2018-06-21T10:29:16.583Z,10
2018-06-21T10:30:17.974Z,10
2018-06-21T10:31:19.363Z,10
2018-06-21T10:32:20.756Z,15
2018-06-21T10:33:22.152Z,15
2018-06-21T10:34:23.530Z,15
2018-06-21T10:35:24.931Z,15
2018-06-21T10:36:26.316Z,15
2018-06-21T10:37:27.711Z,15
2018-06-21T10:38:29.103Z,15
2018-06-21T10:39:30.481Z,20
2018-06-21T10:40:31.875Z,20
2018-06-21T10:41:33.269Z,15
2018-06-21T10:42:34.681Z,10
2018-06-21T10:43:36.054Z,15
2018-06-21T10:44:37.442Z,10
2018-06-21T10:45:38.835Z,10
2018-06-21T10:46:40.221Z,15
2018-06-21T10:47:41.607Z,15
2018-06-21T10:48:43.018Z,15
2018-06-21T10:49:44.399Z,15
2018-06-21T10:50:45.787Z,20
2018-06-21T10:51:47.181Z,20
2018-06-21T10:52:48.581Z,15
2018-06-21T10:53:49.973Z,15
2018-06-21T10:54:51.369Z,10
2018-06-21T10:55:52.757Z,10
2018-06-21T10:56:54.148Z,10
2018-06-21T10:57:55.528Z,15
2018-06-21T10:58:56.949Z,30
2018-06-21T10:59:58.339Z,20
2018-06-21T11:00:59.725Z,25
2018-06-21T11:02:01.971Z,25
2018-06-21T11:03:03.365Z,25
2018-06-21T11:04:04.758Z,25
2018-06-21T11:05:06.147Z,25
2018-06-21T11:06:07.543Z,30
2018-06-21T11:07:08.929Z,30
2018-06-21T11:08:10.319Z,30
2018-06-21T11:09:11.714Z,35
2018-06-21T11:10:13.105Z,35
2018-06-21T11:11:14.504Z,40
2018-06-21T11:12:15.897Z,40
2018-06-21T11:13:17.288Z,35
2018-06-21T11:14:18.686Z,40
2018-06-21T11:15:20.076Z,35
2018-06-21T11:16:21.470Z,35
2018-06-21T11:17:22.856Z,35
2018-06-21T11:18:24.240Z,35
2018-06-21T11:19:25.627Z,35
2018-06-21T11:20:27.023Z,35
2018-06-21T11:21:28.438Z,35
2018-06-21T11:22:29.806Z,30
2018-06-21T11:23:31.198Z,30
2018-06-21T11:24:32.596Z,30
2018-06-21T11:25:33.982Z,30
2018-06-21T11:26:35.370Z,30
2018-06-21T11:27:36.795Z,30
2018-06-21T11:28:38.155Z,30
2018-06-21T11:29:39.543Z,30
2018-06-21T11:30:40.935Z,35
2018-06-21T11:31:42.285Z,35
2018-06-21T11:32:43.671Z,40
2018-06-21T11:33:45.063Z,45
2018-06-21T11:34:46.403Z,45
2018-06-21T11:35:47.796Z,45
2018-06-21T11:36:49.149Z,40
2018-06-21T11:37:50.505Z,40
2018-06-21T11:38:51.846Z,40
2018-06-21T11:39:53.233Z,40
2018-06-21T11:40:54.631Z,35
2018-06-21T11:41:56.026Z,35
2018-06-21T11:42:57.416Z,30
2018-06-21T11:43:58.807Z,30
2018-06-21T11:45:00.200Z,35
2018-06-21T11:46:01.581Z,25
2018-06-21T11:47:02.975Z,30
2018-06-21T11:48:04.368Z,35
2018-06-21T11:49:05.755Z,40
2018-06-21T11:50:07.158Z,40
2018-06-21T11:51:08.552Z,45
2018-06-21T11:52:09.907Z,50
2018-06-21T11:53:11.951Z,55
2018-06-21T11:54:13.355Z,55
2018-06-21T11:55:14.758Z,60
2018-06-21T11:56:16.114Z,70
2018-06-21T11:57:17.521Z,65
2018-06-21T11:58:18.907Z,65
2018-06-21T11:59:20.303Z,75
2018-06-21T12:00:21.653Z,75
2018-06-21T12:01:23.051Z,75
2018-06-21T12:02:24.445Z,80
2018-06-21T12:03:25.880Z,75
2018-06-21T12:04:27.234Z,75
2018-06-21T12:05:28.638Z,75
2018-06-21T12:06:30.030Z,75
2018-06-21T12:07:31.432Z,65
2018-06-21T12:08:33.334Z,55
2018-06-21T12:09:34.720Z,55
2018-06-21T12:10:36.149Z,50
2018-06-21T12:11:37.532Z,45
2018-06-21T12:12:38.951Z,40
2018-06-21T12:13:40.364Z,45
2018-06-21T12:14:41.764Z,40
2018-06-21T12:15:43.168Z,40
2018-06-21T12:16:44.585Z,35
2018-06-21T12:17:45.980Z,35
2018-06-21T12:18:47.379Z,35
2018-06-21T12:19:48.771Z,40
2018-06-21T12:20:50.194Z,45
2018-06-21T12:21:51.567Z,45
2018-06-21T12:22:52.961Z,55
2018-06-21T12:23:54.354Z,55
2018-06-21T12:24:55.749Z,70
2018-06-21T12:25:57.187Z,80
2018-06-21T12:26:58.540Z,85
2018-06-21T12:27:59.967Z,90
2018-06-21T12:29:01.341Z,100
2018-06-21T12:30:02.745Z,85
2018-06-21T12:31:04.128Z,90
2018-06-21T12:32:05.555Z,85
2018-06-21T12:33:06.924Z,100
2018-06-21T12:34:08.323Z,95
2018-06-21T12:35:09.718Z,105
2018-06-21T12:36:11.118Z,140
2018-06-21T12:37:12.512Z,145
2018-06-21T12:38:13.904Z,155
2018-06-21T12:39:15.318Z,145
2018-06-21T12:40:16.696Z,145
2018-06-21T12:41:18.088Z,155
2018-06-21T12:42:19.476Z,160
2018-06-21T12:43:20.880Z,145
2018-06-21T12:44:22.270Z,140
2018-06-21T12:45:23.664Z,125
2018-06-21T12:46:25.066Z,100
2018-06-21T12:47:26.462Z,110
2018-06-21T12:48:27.849Z,120
2018-06-21T12:49:30.029Z,105
2018-06-21T12:50:31.423Z,85
2018-06-21T12:51:32.819Z,70
2018-06-21T12:52:34.265Z,55
2018-06-21T12:53:35.609Z,75
2018-06-21T12:54:37.004Z,75
2018-06-21T12:55:38.389Z,85
2018-06-21T12:56:39.777Z,90
2018-06-21T12:57:41.173Z,65
2018-06-21T12:58:43.110Z,55
2018-06-21T12:59:43.913Z,70
2018-06-21T13:00:45.313Z,85
2018-06-21T13:01:46.708Z,105
2018-06-21T13:02:48.103Z,95
2018-06-21T13:03:49.504Z,85
2018-06-21T13:04:50.890Z,70
2018-06-21T13:05:52.283Z,55
2018-06-21T13:06:53.670Z,50
2018-06-21T13:07:55.058Z,60
2018-06-21T13:08:56.437Z,65
2018-06-21T13:09:57.838Z,75
2018-06-21T13:10:59.230Z,70
2018-06-21T13:12:00.633Z,40
2018-06-21T13:13:02.017Z,25
2018-06-21T13:14:03.404Z,15
2018-06-21T13:15:04.788Z,10
2018-06-21T13:16:06.185Z,10
2018-06-21T13:17:07.567Z,20
2018-06-21T13:18:08.968Z,50
2018-06-21T13:19:10.362Z,90
2018-06-21T13:20:11.773Z,110
2018-06-21T13:21:13.181Z,130
2018-06-21T13:22:14.588Z,175
2018-06-21T13:23:15.968Z,145
2018-06-21T13:24:17.361Z,125
2018-06-21T13:25:18.765Z,115
2018-06-21T13:26:20.155Z,140
2018-06-21T13:27:21.540Z,150
2018-06-21T13:28:22.939Z,135
2018-06-21T13:29:24.348Z,135
2018-06-21T13:30:25.740Z,140
2018-06-21T13:31:27.130Z,125
2018-06-21T13:32:28.515Z,115
2018-06-21T13:33:29.924Z,105
2018-06-21T13:34:31.315Z,110
2018-06-21T13:35:32.709Z,100
2018-06-21T13:36:34.110Z,95
2018-06-21T13:37:35.500Z,100
2018-06-21T13:38:36.898Z,75
2018-06-21T13:39:38.305Z,70
2018-06-21T13:40:39.690Z,70
2018-06-21T13:41:41.096Z,75
2018-06-21T13:42:42.498Z,70
2018-06-21T13:43:43.880Z,55
2018-06-21T13:44:45.272Z,40
2018-06-21T13:45:46.669Z,35
2018-06-21T13:46:48.064Z,35
2018-06-21T13:47:49.473Z,35
2018-06-21T13:48:50.873Z,30
2018-06-21T13:49:52.248Z,30
2018-06-21T13:50:53.640Z,30
2018-06-21T13:51:55.025Z,25
2018-06-21T13:52:56.434Z,30
2018-06-21T13:53:57.823Z,30
2018-06-21T13:54:59.217Z,30
2018-06-21T13:56:00.611Z,30
2018-06-21T13:57:02.002Z,30
2018-06-21T13:58:03.416Z,35
2018-06-21T13:59:04.813Z,40
2018-06-21T14:00:06.208Z,35
2018-06-21T14:01:07.592Z,35
2018-06-21T14:02:08.982Z,40
2018-06-21T14:03:10.389Z,40
2018-06-21T14:04:11.785Z,40
2018-06-21T14:05:13.175Z,40
2018-06-21T14:06:14.579Z,50
2018-06-21T14:07:15.978Z,50
2018-06-21T14:08:17.429Z,55
2018-06-21T14:09:18.741Z,65
2018-06-21T14:10:20.137Z,65
2018-06-21T14:11:21.528Z,85
2018-06-21T14:12:22.930Z,95
2018-06-21T14:13:24.323Z,105
2018-06-21T14:14:25.722Z,105
2018-06-21T14:15:27.110Z,95
2018-06-21T14:16:28.500Z,90
2018-06-21T14:17:29.909Z,90
2018-06-21T14:18:31.302Z,75
2018-06-21T14:19:32.695Z,80
2018-06-21T14:20:34.113Z,75
2018-06-21T14:21:35.435Z,95
2018-06-21T14:22:36.831Z,80
2018-06-21T14:23:38.316Z,75
2018-06-21T14:24:39.591Z,70
2018-06-21T14:25:40.976Z,75
2018-06-21T14:26:42.381Z,70
2018-06-21T14:27:43.773Z,70
2018-06-21T14:28:45.177Z,60
2018-06-21T14:29:46.556Z,55
2018-06-21T14:30:47.968Z,70
2018-06-21T14:31:49.367Z,65
2018-06-21T14:32:50.764Z,60
2018-06-21T14:33:52.151Z,55
2018-06-21T14:34:53.540Z,55
2018-06-21T14:35:54.933Z,45
2018-06-21T14:36:56.339Z,50
2018-06-21T14:37:57.741Z,40
2018-06-21T14:38:59.144Z,40
2018-06-21T14:40:00.536Z,40
2018-06-21T14:41:01.934Z,45
2018-06-21T14:42:03.327Z,65
2018-06-21T14:43:04.721Z,45
2018-06-21T14:44:06.116Z,85
2018-06-21T14:45:07.514Z,75
2018-06-21T14:46:08.909Z,40
2018-06-21T14:47:10.302Z,40
2018-06-21T14:48:11.799Z,40
2018-06-21T14:49:13.099Z,50
2018-06-21T14:50:14.497Z,50
2018-06-21T14:51:15.889Z,70
2018-06-21T14:52:17.287Z,70
2018-06-21T14:53:18.688Z,75
2018-06-21T14:54:20.082Z,50
2018-06-21T14:55:21.481Z,55
2018-06-21T14:56:22.866Z,50
2018-06-21T14:57:24.256Z,60
2018-06-21T14:58:25.658Z,70
2018-06-21T14:59:27.056Z,50
2018-06-21T15:00:28.444Z,40
2018-06-21T15:01:29.846Z,55
2018-06-21T15:02:31.238Z,60
2018-06-21T15:03:32.617Z,60
2018-06-21T15:04:34.012Z,45
2018-06-21T15:05:35.401Z,65
2018-06-21T15:06:36.818Z,40
2018-06-21T15:07:38.203Z,35
2018-06-21T15:08:39.595Z,40
2018-06-21T15:09:40.977Z,45
2018-06-21T15:10:42.376Z,50
2018-06-21T15:11:43.762Z,55
2018-06-21T15:12:45.148Z,55
2018-06-21T15:13:46.542Z,45
2018-06-21T15:14:47.938Z,45
2018-06-21T15:15:49.323Z,55
2018-06-21T15:16:50.720Z,55
2018-06-21T15:17:52.118Z,50
2018-06-21T15:18:53.510Z,30
2018-06-21T15:19:54.897Z,30
2018-06-21T15:20:56.287Z,45
2018-06-21T15:21:57.678Z,50
2018-06-21T15:22:59.095Z,50
2018-06-21T15:24:00.470Z,40
2018-06-21T15:25:01.859Z,75
2018-06-21T15:26:03.439Z,75
2018-06-21T15:27:04.826Z,60
2018-06-21T15:28:06.220Z,40
2018-06-21T15:29:07.624Z,30
2018-06-21T15:30:08.969Z,25
2018-06-21T15:31:10.364Z,25
2018-06-21T15:32:11.719Z,30
2018-06-21T15:33:13.098Z,35
2018-06-21T15:34:14.443Z,40
2018-06-21T15:35:15.839Z,35
2018-06-21T15:36:17.194Z,35
2018-06-21T15:37:19.245Z,45
2018-06-21T15:38:20.644Z,55
2018-06-21T15:39:21.997Z,65
2018-06-21T15:40:23.350Z,80
2018-06-21T15:41:24.749Z,75
2018-06-21T15:42:26.131Z,55
2018-06-21T15:43:27.527Z,40
2018-06-21T15:44:28.882Z,45
2018-06-21T15:45:30.339Z,45
2018-06-21T15:46:31.674Z,40
2018-06-21T15:47:33.093Z,25
2018-06-21T15:48:34.487Z,25
2018-06-21T15:49:35.875Z,30
2018-06-21T15:50:37.269Z,50
2018-06-21T15:51:38.729Z,50
2018-06-21T15:52:40.026Z,55
2018-06-21T15:53:41.425Z,60
2018-06-21T15:54:42.851Z,60
2018-06-21T15:55:44.214Z,50
2018-06-21T15:56:45.599Z,40
2018-06-21T15:57:46.982Z,35
2018-06-21T15:58:48.380Z,35
2018-06-21T15:59:49.763Z,40
2018-06-21T16:00:51.154Z,40
2018-06-21T16:01:52.536Z,40
2018-06-21T16:02:53.933Z,40
2018-06-21T16:03:55.331Z,35
2018-06-21T16:04:56.711Z,40
2018-06-21T16:05:58.116Z,45
2018-06-21T16:06:59.509Z,45
2018-06-21T16:08:00.889Z,40
2018-06-21T16:09:02.281Z,35
2018-06-21T16:10:04.347Z,35
2018-06-21T16:11:05.746Z,45
2018-06-21T16:12:07.137Z,35
2018-06-21T16:13:08.515Z,40
2018-06-21T16:14:09.927Z,55
2018-06-21T16:15:11.315Z,55
2018-06-21T16:16:12.749Z,40
2018-06-21T16:17:14.142Z,35
2018-06-21T16:18:15.531Z,35
2018-06-21T16:19:16.953Z,40
2018-06-21T16:20:18.351Z,50
2018-06-21T16:21:19.728Z,60
2018-06-21T16:22:21.131Z,45
2018-06-21T16:23:22.509Z,50
2018-06-21T16:24:23.903Z,35
2018-06-21T16:25:25.293Z,60
2018-06-21T16:26:26.684Z,40
2018-06-21T16:27:28.086Z,35
2018-06-21T16:28:29.478Z,30
2018-06-21T16:29:30.879Z,40
2018-06-21T16:30:32.220Z,45
2018-06-21T16:31:33.606Z,45
2018-06-21T16:32:35.005Z,45
2018-06-21T16:33:36.449Z,35
2018-06-21T16:34:37.740Z,50
2018-06-21T16:35:39.126Z,40
2018-06-21T16:36:40.521Z,45
2018-06-21T16:37:42.484Z,45
2018-06-21T16:38:43.885Z,40
2018-06-21T16:39:45.284Z,45
2018-06-21T16:40:46.702Z,40
2018-06-21T16:41:48.062Z,40
2018-06-21T16:42:49.451Z,40
2018-06-21T16:43:50.847Z,45
2018-06-21T16:44:52.232Z,35
2018-06-21T16:45:53.631Z,40
2018-06-21T16:46:55.013Z,40
2018-06-21T16:47:56.422Z,45
2018-06-21T16:48:57.815Z,40
2018-06-21T16:49:59.194Z,35
2018-06-21T16:51:00.656Z,35
2018-06-21T16:52:01.970Z,40
2018-06-21T16:53:03.348Z,40
2018-06-21T16:54:04.744Z,35
2018-06-21T16:55:06.125Z,40
2018-06-21T16:56:07.478Z,35
2018-06-21T16:57:08.862Z,35
2018-06-21T16:58:10.246Z,30
2018-06-21T16:59:11.705Z,30
2018-06-21T17:00:13.077Z,30
2018-06-21T17:01:14.587Z,35
2018-06-21T17:02:16.007Z,40
2018-06-21T17:03:17.346Z,50
2018-06-21T17:04:18.755Z,50
2018-06-21T17:05:20.143Z,35
2018-06-21T17:06:21.545Z,35
2018-06-21T17:07:23.404Z,30
2018-06-21T17:08:24.810Z,25
2018-06-21T17:09:26.228Z,25
2018-06-21T17:10:27.619Z,25
2018-06-21T17:11:28.993Z,25
2018-06-21T17:12:30.387Z,30
2018-06-21T17:13:31.786Z,25
2018-06-21T17:14:33.176Z,20
2018-06-21T17:15:34.572Z,20
2018-06-21T17:16:35.963Z,20
2018-06-21T17:17:38.231Z,20
2018-06-21T17:18:39.599Z,20
2018-06-21T17:19:40.987Z,25
2018-06-21T17:20:42.373Z,25
2018-06-21T17:21:43.771Z,25
2018-06-21T17:22:45.160Z,25
2018-06-21T17:23:46.552Z,30
2018-06-21T17:24:47.932Z,25
2018-06-21T17:25:49.324Z,20
2018-06-21T17:26:50.726Z,25
2018-06-21T17:27:52.122Z,30
2018-06-21T17:28:53.514Z,25
2018-06-21T17:29:54.924Z,25
2018-06-21T17:30:56.318Z,25
2018-06-21T17:31:57.706Z,30
2018-06-21T17:32:59.098Z,35
2018-06-21T17:34:00.478Z,30
2018-06-21T17:35:01.925Z,20
2018-06-21T17:36:03.350Z,20
2018-06-21T17:37:04.820Z,25
2018-06-21T17:38:06.057Z,30
2018-06-21T17:39:07.445Z,25
2018-06-21T17:40:08.825Z,20
2018-06-21T17:41:10.231Z,20
2018-06-21T17:42:11.611Z,20
2018-06-21T17:43:12.994Z,20
2018-06-21T17:44:14.396Z,20
2018-06-21T17:45:16.776Z,20
2018-06-21T17:46:18.159Z,20
2018-06-21T17:47:19.556Z,30
2018-06-21T17:48:20.952Z,20
2018-06-21T17:49:22.344Z,20
2018-06-21T17:50:23.752Z,25
2018-06-21T17:51:25.142Z,25
2018-06-21T17:52:26.536Z,20
2018-06-21T17:53:27.928Z,20
2018-06-21T17:54:29.333Z,20
2018-06-21T17:55:30.713Z,20
2018-06-21T17:56:32.104Z,20
2018-06-21T17:57:33.502Z,20
2018-06-21T17:58:34.897Z,20
2018-06-21T17:59:36.326Z,20
2018-06-21T18:00:37.731Z,25
2018-06-21T18:01:39.121Z,30
2018-06-21T18:02:40.512Z,20
2018-06-21T18:03:41.894Z,15
2018-06-21T18:04:43.291Z,15
2018-06-21T18:05:44.678Z,15
2018-06-21T18:06:46.063Z,20
2018-06-21T18:07:47.457Z,15
2018-06-21T18:08:48.861Z,15
2018-06-21T18:09:50.248Z,15
2018-06-21T18:10:51.700Z,15
2018-06-21T18:11:52.975Z,15
2018-06-21T18:12:54.373Z,15
2018-06-21T18:13:55.763Z,20
2018-06-21T18:14:57.153Z,20
2018-06-21T18:15:58.558Z,15
2018-06-21T18:16:59.956Z,15
2018-06-21T18:18:01.357Z,15
2018-06-21T18:19:02.742Z,15
2018-06-21T18:20:04.141Z,15
2018-06-21T18:21:05.543Z,15
2018-06-21T18:22:06.926Z,20
2018-06-21T18:23:08.334Z,15
2018-06-21T18:24:09.730Z,15
2018-06-21T18:25:11.134Z,15
2018-06-21T18:26:12.555Z,15
2018-06-21T18:27:13.907Z,15
2018-06-21T18:28:15.312Z,15
2018-06-21T18:29:16.667Z,10
2018-06-21T18:30:18.068Z,10
2018-06-21T18:31:19.466Z,10
2018-06-21T18:32:20.843Z,10
2018-06-21T18:33:22.268Z,10
2018-06-21T18:34:23.628Z,10
2018-06-21T18:35:25.067Z,10
2018-06-21T18:36:26.359Z,5
2018-06-21T18:37:27.749Z,5
2018-06-21T18:38:29.132Z,10
2018-06-21T18:39:30.541Z,10
2018-06-21T18:40:31.929Z,10
2018-06-21T18:41:33.320Z,10
2018-06-21T18:42:34.702Z,10
2018-06-21T18:43:36.100Z,10
2018-06-21T18:44:37.488Z,10
2018-06-21T18:45:38.868Z,10
2018-06-21T18:46:40.267Z,10
2018-06-21T18:47:41.659Z,10
2018-06-21T18:48:43.056Z,10
2018-06-21T18:49:44.441Z,10
2018-06-21T18:50:45.845Z,10
2018-06-21T18:51:47.234Z,10
2018-06-21T18:52:48.713Z,10
2018-06-21T18:53:49.979Z,10
2018-06-21T18:54:51.362Z,5